Arlington, SD

4:47 AM CDT on July 31, 2014 (GMT -0500)
Brown Farm LTD. (KSDARLIN3) Elev 1808 ft | 44.38 °N, 97.08 °W | Change Station

Current weather conditions updated 3 seconds ago

Clear
Clear
60.1 °F
Feels Like 60.1 °F
N
0.0
Wind Variable Wind from NE
Gusts 0.0 mph

Today is forecast to be nearly the same temperature as yesterday.

Today
High -- | Low -- °F
--% Chance of Precip.
Yesterday
High -- | Low -- °F
Precip. -- in
6:14 AM 8:54 PM
Waxing Crescent, 17% visible
Pressure 30.09 in
Visibility 10.0 miles
Clouds Clear
Dew Point 56 °F
Humidity 88%
Rainfall 0.00 in
Snow Depth Not available.
UV 0.0 out of 12
Pollen 6.60 out of 12
Air Quality Not available.
Flu Activity Not available.
METAR KMDS 310930Z AUTO 00000KT 10SM CLR 12/12 A3009 RMK AO2

More Conditions Fewer Conditions

Pressure 30.09 in
Visibility 10.0 miles
Clouds Clear
Dew Point 56 °F
Humidity 88%
Rainfall 0.00 in
Snow Depth Not available.
UV 0.0 out of 12
Pollen 6.60 out of 12
Air Quality Not available.
Flu Activity Not available.
METAR KMDS 310930Z AUTO 00000KT 10SM CLR 12/12 A3009 RMK AO2

More Conditions Fewer Conditions

10-Day Weather Forecast

Almanac

Astronomy

Jul. 31, 2014 Rise Set
Actual Time 6:14 AM CDT 8:54 PM CDT
Civil Twilight 5:41 AM CDT 9:27 PM CDT
Nautical Twilight 4:59 AM CDT 10:09 PM CDT
Astronomical Twilight 4:10 AM CDT 10:57 PM CDT
Moon 10:55 AM CDT 10:54 PM CDT
Length of Visible Light 15h 46m
Length of Day
14h 39m
Tomorrow will be 2m 20s shorter.
Waxing Crescent, 17% of the Moon is Illuminated
Today
Waxing Crescent
Aug 3
First Quarter
Aug 10
Full
Aug 17
Last Quarter
Aug 25
New

Today's Extremes

State Highs State Lows

Community

WunderPhotos

Upload Photos

1,739,284 photos uploaded!

Nearby

Snow Depth

Station Depth Elevation
Blind Park 0 in 6890 ft

Earthquake Activity

City Distance Mag. Time & Date
No recent earthquake activity has been reported nearby.
Minimum magnitude displayed is 2.5.

Coastal Water Temperatures

Place Temperature
No Stations Reporting

Nearby Weather Stations

Station Location Temp. Dew Point Humidity Wind Precip. Elev Updated Type
Brown Farm LTD., Arlington, SD 60.1 °F 56 °F 88% NE  at  0.0 mph 0.00 in / hr 1808 ft 4:47 AM CDT Rapid Fire
Volga, SD 55.6 °F 52 °F 88% NW  at  0.0 mph 0.00 in / hr 1655 ft 4:47 AM CDT Normal
Valley View, Brookings, SD, Brookings, SD 54.8 °F 54 °F 99% West  at  0.0 mph 0.00 in / hr 1601 ft 4:47 AM CDT Rapid Fire
Indian Hills, Brookings, SD 56.2 °F 55 °F 97% NW  at  0.0 mph 0.00 in / hr 1650 ft 4:45 AM CDT Normal
Neighborhood, Brookings, SD 56.3 °F 54 °F 93% SW  at  0.0 mph 0.00 in / hr 1627 ft 4:43 AM CDT Rapid Fire
Hamlin County Courthouse, Hayti, SD 56.3 °F 51 °F 83% NNW  at  0.0 mph 0.08 in / hr 1700 ft 4:47 AM CDT Rapid Fire
HADS BIG SIOUX RIVER NEAR BROOKINGS 1 SD, Brookings, SD 53 °F - - North  at  - 0.00 in / hr 1549 ft 3:45 AM CDT MADIS

Show More Stations Show Fewer Stations